createdAt,value
2022-08-20T00:00:50.180Z,100809.94
2022-08-20T00:03:27.597Z,100811.53
2022-08-20T00:05:58.058Z,100809.03
2022-08-20T00:08:26.380Z,100805.72
2022-08-20T00:10:56.663Z,100811.25
2022-08-20T00:13:26.622Z,100813.25
2022-08-20T00:15:55.126Z,100810.59
2022-08-20T00:18:24.050Z,100825.56
2022-08-20T00:20:55.345Z,100825.75
2022-08-20T00:23:24.705Z,100830.25
2022-08-20T00:25:53.470Z,100829.22
2022-08-20T00:28:23.591Z,100830.06
2022-08-20T00:30:51.438Z,100819.41
2022-08-20T00:33:21.705Z,100821.25
2022-08-20T00:35:51.822Z,100823.91
2022-08-20T00:38:20.390Z,100824.09
2022-08-20T00:40:53.019Z,100815.81
2022-08-20T00:43:32.049Z,100822.00
2022-08-20T00:46:01.407Z,100827.09
2022-08-20T00:48:32.255Z,100822.63
2022-08-20T00:51:10.113Z,100828.94
2022-08-20T00:53:39.029Z,100817.50
2022-08-20T00:56:08.464Z,100820.31
2022-08-20T00:58:39.954Z,100824.66
2022-08-20T01:01:09.472Z,100818.47
2022-08-20T01:03:37.249Z,100825.66
2022-08-20T01:06:05.493Z,100824.00
2022-08-20T01:08:33.054Z,100830.34
2022-08-20T01:11:09.868Z,100831.16
2022-08-20T01:13:41.242Z,100827.00
2022-08-20T01:16:17.551Z,100831.97
2022-08-20T01:18:48.357Z,100832.03
2022-08-20T01:21:18.803Z,100831.94
2022-08-20T01:23:53.078Z,100826.81
2022-08-20T01:26:26.097Z,100830.84
2022-08-20T01:28:56.450Z,100828.19
2022-08-20T01:31:27.005Z,100822.22
2022-08-20T01:33:56.847Z,100832.38
2022-08-20T01:36:27.520Z,100832.56
2022-08-20T01:38:55.570Z,100830.28
2022-08-20T01:41:52.458Z,100825.78
2022-08-20T01:44:21.143Z,100836.88
2022-08-20T01:46:51.370Z,100831.56
2022-08-20T01:49:23.798Z,100838.53
2022-08-20T01:51:52.764Z,100834.03
2022-08-20T01:54:21.795Z,100834.84
2022-08-20T01:57:00.126Z,100839.38
2022-08-20T01:59:28.561Z,100839.38
2022-08-20T02:01:58.506Z,100829.72
2022-08-20T02:04:27.665Z,100835.03
2022-08-20T02:06:58.214Z,100837.69
2022-08-20T02:09:27.309Z,100834.22
2022-08-20T02:11:56.523Z,100840.53
2022-08-20T02:14:25.344Z,100838.91
2022-08-20T02:16:54.904Z,100852.38
2022-08-20T02:19:28.969Z,100851.72
2022-08-20T02:21:59.964Z,100858.03
2022-08-20T02:24:29.987Z,100860.88
2022-08-20T02:26:59.052Z,100854.56
2022-08-20T02:29:28.758Z,100859.88
2022-08-20T02:32:32.357Z,100859.03
2022-08-20T02:34:44.322Z,100860.03
2022-08-20T02:37:14.590Z,100869.84
2022-08-20T02:39:42.319Z,100868.22
2022-08-20T02:42:12.224Z,100871.69
2022-08-20T02:44:40.435Z,100873.88
2022-08-20T02:47:08.644Z,100869.91
2022-08-20T02:49:36.582Z,100869.25
2022-08-20T02:52:04.807Z,100865.97
2022-08-20T02:54:32.368Z,100864.00
2022-08-20T02:57:00.050Z,100861.69
2022-08-20T02:59:28.984Z,100859.22
2022-08-20T03:02:00.429Z,100858.09
2022-08-20T03:04:28.966Z,100860.94
2022-08-20T03:06:56.520Z,100862.13
2022-08-20T03:09:24.296Z,100856.13
2022-08-20T03:11:52.854Z,100851.16
2022-08-20T03:14:20.935Z,100855.66
2022-08-20T03:16:50.147Z,100850.69
2022-08-20T03:19:17.839Z,100845.91
2022-08-20T03:21:45.411Z,100846.06
2022-08-20T03:24:12.978Z,100846.28
2022-08-20T03:26:40.609Z,100836.81
2022-08-20T03:29:08.338Z,100841.13
2022-08-20T03:31:35.980Z,100846.28
2022-08-20T03:34:05.261Z,100847.28
2022-08-20T03:36:33.391Z,100846.44
2022-08-20T03:39:03.415Z,100852.59
2022-08-20T03:41:32.234Z,100832.31
2022-08-20T03:44:00.220Z,100834.16
2022-08-20T03:46:27.991Z,100839.47
2022-08-20T03:49:00.156Z,100836.16
2022-08-20T03:51:30.900Z,100838.81
2022-08-20T03:53:59.280Z,100840.63
2022-08-20T03:56:27.347Z,100845.94
2022-08-20T03:58:55.370Z,100846.81
2022-08-20T04:01:36.849Z,100854.78
2022-08-20T04:04:12.138Z,100859.25
2022-08-20T04:06:42.448Z,100860.91
2022-08-20T04:09:11.737Z,100865.59
2022-08-20T04:11:40.239Z,100854.13
2022-08-20T04:14:07.951Z,100863.75
2022-08-20T04:16:37.791Z,100865.41
2022-08-20T04:19:06.215Z,100857.44
2022-08-20T04:21:35.292Z,100852.94
2022-08-20T04:24:05.810Z,100849.47
2022-08-20T04:26:36.434Z,100859.75
2022-08-20T04:29:04.767Z,100853.59
2022-08-20T04:31:34.171Z,100851.94
2022-08-20T04:34:02.969Z,100849.28
2022-08-20T04:36:30.718Z,100846.63
2022-08-20T04:38:58.256Z,100838.47
2022-08-20T04:41:27.278Z,100844.25
2022-08-20T04:43:56.987Z,100838.94
2022-08-20T04:46:28.762Z,100848.56
2022-08-20T04:48:57.709Z,100853.06
2022-08-20T04:51:28.036Z,100855.72
2022-08-20T04:53:57.563Z,100861.84
2022-08-20T04:56:30.435Z,100862.53
2022-08-20T04:58:59.880Z,100859.03
2022-08-20T05:01:28.383Z,100859.88
2022-08-20T05:03:57.157Z,100867.69
2022-08-20T05:06:28.554Z,100871.97
2022-08-20T05:08:58.829Z,100871.16
2022-08-20T05:11:35.013Z,100879.94
2022-08-20T05:14:07.729Z,100871.78
2022-08-20T05:16:38.714Z,100885.75
2022-08-20T05:19:08.643Z,100881.91
2022-08-20T05:21:36.871Z,100877.06
2022-08-20T05:24:05.142Z,100871.22
2022-08-20T05:26:34.303Z,100874.81
2022-08-20T05:29:05.016Z,100893.25
2022-08-20T05:31:33.601Z,100894.09
2022-08-20T05:34:10.658Z,100901.06
2022-08-20T05:36:40.085Z,100901.88
2022-08-20T05:39:08.824Z,100894.59
2022-08-20T05:41:38.588Z,100894.22
2022-08-20T05:44:10.009Z,100895.88
2022-08-20T05:46:40.463Z,100906.34
2022-08-20T05:49:08.368Z,100900.84
2022-08-20T05:51:36.905Z,100908.47
2022-08-20T05:54:05.284Z,100913.63
2022-08-20T05:56:33.928Z,100906.91
2022-08-20T05:59:04.803Z,100904.09
2022-08-20T06:01:33.257Z,100901.13
2022-08-20T06:04:19.157Z,100906.28
2022-08-20T06:06:47.794Z,100908.75
2022-08-20T06:09:30.767Z,100912.25
2022-08-20T06:11:59.613Z,100919.41
2022-08-20T06:14:28.948Z,100916.75
2022-08-20T06:16:57.984Z,100916.75
2022-08-20T06:19:27.122Z,100916.75
2022-08-20T06:21:59.867Z,100921.88
2022-08-20T06:24:27.692Z,100913.91
2022-08-20T06:26:57.152Z,100917.38
2022-08-20T06:29:24.741Z,100920.38
2022-08-20T06:31:54.300Z,100914.41
2022-08-20T06:34:21.931Z,100925.03
2022-08-20T06:36:52.815Z,100927.34
2022-08-20T06:39:20.608Z,100923.69
2022-08-20T06:41:48.462Z,100927.72
2022-08-20T06:44:17.020Z,100918.09
2022-08-20T06:46:45.472Z,100922.56
2022-08-20T06:49:14.588Z,100929.22
2022-08-20T06:51:42.233Z,100926.91
2022-08-20T06:54:10.316Z,100933.56
2022-08-20T06:56:37.916Z,100930.09
2022-08-20T06:59:05.604Z,100928.44
2022-08-20T07:01:33.475Z,100934.94
2022-08-20T07:04:01.190Z,100936.28
2022-08-20T07:06:30.075Z,100937.66
2022-08-20T07:08:58.230Z,100939.34
2022-08-20T07:11:28.390Z,100944.81
2022-08-20T07:13:57.978Z,100948.47
2022-08-20T07:16:25.973Z,100950.16
2022-08-20T07:18:53.602Z,100949.97
2022-08-20T07:21:21.235Z,100954.91
2022-08-20T07:23:50.157Z,100958.41
2022-08-20T07:26:18.267Z,100964.56
2022-08-20T07:31:48.179Z,100969.72
2022-08-20T07:34:16.097Z,100977.53
2022-08-20T07:36:46.359Z,100972.38
2022-08-20T07:39:34.303Z,100976.69
2022-08-20T07:42:09.612Z,100972.84
2022-08-20T07:44:39.413Z,100976.53
2022-08-20T07:47:09.246Z,100975.50
2022-08-20T07:49:40.076Z,100971.19
2022-08-20T07:52:08.925Z,100970.19
2022-08-20T07:54:38.623Z,100974.50
2022-08-20T07:57:07.205Z,100972.03
2022-08-20T07:59:35.092Z,100971.38
2022-08-20T08:02:04.406Z,100967.88
2022-08-20T08:04:32.293Z,100969.53
2022-08-20T08:07:00.878Z,100970.34
2022-08-20T08:09:29.686Z,100981.00
2022-08-20T08:12:00.839Z,100981.84
2022-08-20T08:14:32.445Z,100983.31
2022-08-20T08:17:04.756Z,100984.13
2022-08-20T08:19:38.878Z,100988.47
2022-08-20T08:22:14.443Z,100992.09
2022-08-20T08:24:57.415Z,100994.78
2022-08-20T08:27:27.320Z,101004.25
2022-08-20T08:29:55.356Z,100998.09
2022-08-20T08:32:24.607Z,101001.59
2022-08-20T08:34:52.462Z,100996.25
2022-08-20T08:37:20.754Z,100996.09
2022-08-20T08:39:48.620Z,100996.75
2022-08-20T08:42:29.784Z,100998.41
2022-08-20T08:44:58.174Z,100994.56
2022-08-20T08:47:29.723Z,101006.72
2022-08-20T08:49:59.071Z,101004.69
2022-08-20T08:52:32.326Z,101007.19
2022-08-20T08:55:03.506Z,101012.34
2022-08-20T08:57:32.646Z,101011.34
2022-08-20T09:00:15.397Z,101018.94
2022-08-20T09:02:55.946Z,101015.31
2022-08-20T09:05:29.193Z,101019.09
2022-08-20T09:07:57.366Z,101017.91
2022-08-20T09:10:25.527Z,101018.56
2022-08-20T09:12:55.020Z,101024.38
2022-08-20T09:15:23.061Z,101020.69
2022-08-20T09:17:51.125Z,101030.34
2022-08-20T09:20:19.460Z,101037.31
2022-08-20T09:22:49.001Z,101029.31
2022-08-20T09:25:20.491Z,101026.31
2022-08-20T09:27:48.360Z,101035.44
2022-08-20T09:30:20.555Z,101030.59
2022-08-20T09:32:48.390Z,101027.75
2022-08-20T09:35:16.249Z,101028.56
2022-08-20T09:37:44.003Z,101026.19
2022-08-20T09:40:14.294Z,101024.66
2022-08-20T09:42:50.150Z,101019.63
2022-08-20T09:45:21.424Z,101026.06
2022-08-20T09:47:56.616Z,101025.53
2022-08-20T09:50:25.115Z,101029.50
2022-08-20T09:52:54.950Z,101030.63
2022-08-20T09:55:30.249Z,101027.25
2022-08-20T09:57:58.754Z,101021.00
2022-08-20T10:00:28.297Z,101014.78
2022-08-20T10:02:56.085Z,101025.34
2022-08-20T10:05:24.273Z,101019.75
2022-08-20T10:07:53.405Z,101022.69
2022-08-20T10:10:24.848Z,101016.47
2022-08-20T10:12:54.873Z,101021.88
2022-08-20T10:15:32.607Z,101026.69
2022-08-20T10:18:05.461Z,101025.09
2022-08-20T10:20:34.091Z,101027.56
2022-08-20T10:23:02.311Z,101031.69
2022-08-20T10:25:30.165Z,101019.69
2022-08-20T10:27:58.290Z,101017.84
2022-08-20T10:30:26.761Z,101022.63
2022-08-20T10:32:56.491Z,101023.94
2022-08-20T10:35:25.128Z,101023.75
2022-08-20T10:37:54.881Z,101028.84
2022-08-20T10:40:23.707Z,101030.16
2022-08-20T10:42:52.224Z,101017.25
2022-08-20T10:45:20.785Z,101028.56
2022-08-20T10:47:49.109Z,101034.09
2022-08-20T10:50:20.255Z,101030.59
2022-08-20T10:52:48.768Z,101028.94
2022-08-20T10:55:17.514Z,101028.50
2022-08-20T10:57:47.805Z,101032.00
2022-08-20T11:00:19.128Z,101043.94
2022-08-20T11:02:48.997Z,101041.09
2022-08-20T11:05:19.007Z,101044.59
2022-08-20T11:07:55.060Z,101049.72
2022-08-20T11:10:27.291Z,101048.72
2022-08-20T11:12:56.864Z,101048.56
2022-08-20T11:15:26.526Z,101051.22
2022-08-20T11:17:55.647Z,101044.22
2022-08-20T11:20:27.271Z,101038.50
2022-08-20T11:23:04.153Z,101049.81
2022-08-20T11:25:35.525Z,101041.00
2022-08-20T11:28:10.918Z,101042.66
2022-08-20T11:30:51.657Z,101050.84
2022-08-20T11:33:23.235Z,101050.59
2022-08-20T11:35:58.707Z,101051.78
2022-08-20T11:38:28.195Z,101046.97
2022-08-20T11:41:02.825Z,101048.38
2022-08-20T11:43:41.747Z,101051.69
2022-08-20T11:46:10.190Z,101043.50
2022-08-20T11:48:52.051Z,101055.44
2022-08-20T11:51:23.766Z,101053.63
2022-08-20T11:53:56.774Z,101051.78
2022-08-20T11:56:29.618Z,101047.06
2022-08-20T11:58:58.340Z,101056.38
2022-08-20T12:01:34.311Z,101058.00
2022-08-20T12:04:03.714Z,101054.97
2022-08-20T12:06:34.428Z,101052.13
2022-08-20T12:09:06.089Z,101051.47
2022-08-20T12:11:41.857Z,101047.81
2022-08-20T12:14:09.677Z,101060.56
2022-08-20T12:16:43.977Z,101056.06
2022-08-20T12:19:12.803Z,101051.81
2022-08-20T12:21:42.746Z,101057.78
2022-08-20T12:24:12.842Z,101059.44
2022-08-20T12:26:41.858Z,101050.81
2022-08-20T12:29:09.426Z,101060.28
2022-08-20T12:31:37.708Z,101062.94
2022-08-20T12:34:07.244Z,101063.97
2022-08-20T12:36:35.802Z,101058.38
2022-08-20T12:39:11.639Z,101067.13
2022-08-20T12:41:44.449Z,101061.34
2022-08-20T12:44:13.469Z,101060.66
2022-08-20T12:46:41.928Z,101072.19
2022-08-20T12:49:09.985Z,101066.19
2022-08-20T12:51:37.706Z,101062.72
2022-08-20T12:54:07.400Z,101061.06
2022-08-20T12:56:36.277Z,101064.75
2022-08-20T12:59:05.057Z,101061.44
2022-08-20T13:01:33.731Z,101069.81
2022-08-20T13:04:01.690Z,101060.97
2022-08-20T13:06:30.330Z,101072.47
2022-08-20T13:08:59.103Z,101066.13
2022-08-20T13:11:29.807Z,101065.09
2022-08-20T13:13:57.893Z,101071.25
2022-08-20T13:16:25.917Z,101069.81
2022-08-20T13:18:53.878Z,101071.63
2022-08-20T13:21:24.090Z,101074.50
2022-08-20T13:23:52.222Z,101072.03
2022-08-20T13:26:20.310Z,101075.06
2022-08-20T13:28:49.296Z,101068.25
2022-08-20T13:31:17.164Z,101069.66
2022-08-20T13:33:46.855Z,101073.84
2022-08-20T13:36:15.454Z,101072.41
2022-08-20T13:38:43.725Z,101069.44
2022-08-20T13:41:12.153Z,101075.50
2022-08-20T13:43:48.051Z,101070.53
2022-08-20T13:46:18.375Z,101078.06
2022-08-20T13:48:46.425Z,101076.41
2022-08-20T13:51:19.034Z,101080.63
2022-08-20T13:53:47.383Z,101085.50
2022-08-20T13:56:15.806Z,101081.81
2022-08-20T13:58:43.775Z,101074.84
2022-08-20T14:01:14.773Z,101072.38
2022-08-20T14:03:44.519Z,101072.53
2022-08-20T14:06:14.282Z,101068.84
2022-08-20T14:08:42.592Z,101067.66
2022-08-20T14:11:12.842Z,101063.34
2022-08-20T14:13:45.684Z,101063.50
2022-08-20T14:16:17.161Z,101070.06
2022-08-20T14:18:56.725Z,101071.88
2022-08-20T14:21:25.138Z,101082.53
2022-08-20T14:23:55.539Z,101078.41
2022-08-20T14:26:23.454Z,101084.91
2022-08-20T14:28:52.115Z,101078.13
2022-08-20T14:31:20.320Z,101076.94
2022-08-20T14:33:48.129Z,101074.25
2022-08-20T14:36:17.733Z,101077.97
2022-08-20T14:38:47.045Z,101074.63
2022-08-20T14:41:18.066Z,101076.47
2022-08-20T14:43:48.974Z,101076.66
2022-08-20T14:46:19.459Z,101082.16
2022-08-20T14:48:47.395Z,101083.38
2022-08-20T14:51:23.822Z,101086.38
2022-08-20T14:53:52.182Z,101074.06
2022-08-20T14:56:20.758Z,101083.06
2022-08-20T14:58:51.461Z,101080.59
2022-08-20T15:01:20.538Z,101075.63
2022-08-20T15:03:48.579Z,101072.94
2022-08-20T15:06:21.987Z,101089.94
2022-08-20T15:08:51.276Z,101083.78
2022-08-20T15:11:18.775Z,101082.47
2022-08-20T15:13:47.268Z,101086.34
2022-08-20T15:16:15.409Z,101081.19
2022-08-20T15:18:43.881Z,101081.56
2022-08-20T15:21:13.041Z,101086.25
2022-08-20T15:23:41.192Z,101093.59
2022-08-20T15:26:10.667Z,101091.91
2022-08-20T15:28:38.884Z,101087.56
2022-08-20T15:31:10.183Z,101086.09
2022-08-20T15:33:38.349Z,101089.94
2022-08-20T15:36:07.981Z,101089.09
2022-08-20T15:38:36.079Z,101085.81
2022-08-20T15:41:04.351Z,101088.66
2022-08-20T15:43:35.260Z,101078.34
2022-08-20T15:46:05.764Z,101085.50
2022-08-20T15:48:37.471Z,101081.34
2022-08-20T15:51:22.551Z,101081.72
2022-08-20T15:54:01.463Z,101089.06
2022-08-20T15:56:48.580Z,101081.41
2022-08-20T15:59:44.680Z,101084.59
2022-08-20T16:02:41.376Z,101091.13
2022-08-20T16:05:20.469Z,101095.78
2022-08-20T16:08:01.256Z,101089.34
2022-08-20T16:10:34.646Z,101094.19
2022-08-20T16:13:07.133Z,101087.53
2022-08-20T16:15:48.856Z,101089.56
2022-08-20T16:18:21.197Z,101087.88
2022-08-20T16:20:52.892Z,101085.41
2022-08-20T16:23:24.943Z,101091.09
2022-08-20T16:26:04.060Z,101097.41
2022-08-20T16:28:40.732Z,101101.25
2022-08-20T16:31:14.154Z,101104.06
2022-08-20T16:33:51.470Z,101098.97
2022-08-20T16:36:27.832Z,101109.78
2022-08-20T16:38:59.567Z,101110.94
2022-08-20T16:41:31.974Z,101112.78
2022-08-20T16:44:04.710Z,101114.75
2022-08-20T16:46:38.289Z,101115.63
2022-08-20T16:49:13.400Z,101111.47
2022-08-20T16:51:42.886Z,101110.63
2022-08-20T16:54:12.100Z,101100.00
2022-08-20T16:56:41.941Z,101104.50
2022-08-20T16:59:12.515Z,101104.50
2022-08-20T17:02:07.350Z,101099.16
2022-08-20T17:04:58.661Z,101102.00
2022-08-20T17:07:33.286Z,101108.16
2022-08-20T17:10:12.689Z,101099.50
2022-08-20T17:12:41.308Z,101106.47
2022-08-20T17:15:19.011Z,101110.00
2022-08-20T17:17:48.846Z,101106.47
2022-08-20T17:20:20.832Z,101110.16
2022-08-20T17:22:54.088Z,101111.81
2022-08-20T17:25:30.589Z,101106.47
2022-08-20T17:28:00.789Z,101108.31
2022-08-20T17:30:38.542Z,101114.47
2022-08-20T17:33:19.753Z,101113.81
2022-08-20T17:35:53.346Z,101122.81
2022-08-20T17:38:30.055Z,101120.16
2022-08-20T17:41:01.106Z,101123.81
2022-08-20T17:43:31.100Z,101131.78
2022-08-20T17:46:02.147Z,101129.28
2022-08-20T17:48:37.455Z,101135.44
2022-08-20T17:51:16.382Z,101138.94
2022-08-20T17:53:47.450Z,101142.56
2022-08-20T17:56:22.474Z,101139.91
2022-08-20T17:58:55.570Z,101138.25
2022-08-20T18:01:25.997Z,101141.75
2022-08-20T18:03:56.187Z,101135.59
2022-08-20T18:06:34.224Z,101143.56
2022-08-20T18:09:05.951Z,101146.22
2022-08-20T18:11:41.528Z,101147.25
2022-08-20T18:14:19.963Z,101148.06
2022-08-20T18:17:03.662Z,101147.06
2022-08-20T18:19:52.316Z,101148.88
2022-08-20T18:22:24.275Z,101151.53
2022-08-20T18:25:01.456Z,101142.75
2022-08-20T18:27:40.593Z,101145.41
2022-08-20T18:30:17.474Z,101154.38
2022-08-20T18:32:48.534Z,101149.91
2022-08-20T18:35:22.190Z,101163.22
2022-08-20T18:37:50.152Z,101152.56
2022-08-20T18:40:27.651Z,101155.22
2022-08-20T18:42:56.045Z,101155.22
2022-08-20T18:45:32.929Z,101149.22
2022-08-20T18:48:05.508Z,101158.06
2022-08-20T18:50:55.697Z,101160.25
2022-08-20T18:53:33.978Z,101169.03
2022-08-20T18:59:15.169Z,101157.91
2022-08-20T19:01:52.444Z,101165.91
2022-08-20T19:04:29.105Z,101171.56
2022-08-20T19:07:02.560Z,101177.69
2022-08-20T19:09:54.512Z,101168.91
2022-08-20T19:12:47.380Z,101159.06
2022-08-20T19:15:17.436Z,101169.88
2022-08-20T19:17:55.104Z,101168.25
2022-08-20T19:20:25.615Z,101173.41
2022-08-20T19:23:01.417Z,101180.53
2022-08-20T19:25:32.630Z,101171.72
2022-08-20T19:28:04.558Z,101178.03
2022-08-20T19:30:37.654Z,101171.25
2022-08-20T19:33:06.974Z,101178.38
2022-08-20T19:35:36.117Z,101178.53
2022-08-20T19:38:08.719Z,101175.22
2022-08-20T19:40:46.246Z,101170.06
2022-08-20T19:43:19.296Z,101171.25
2022-08-20T19:45:50.955Z,101172.06
2022-08-20T19:48:45.039Z,101170.59
2022-08-20T19:51:21.907Z,101169.75
2022-08-20T19:53:51.730Z,101171.75
2022-08-20T19:56:29.249Z,101179.09
2022-08-20T19:59:03.274Z,101176.59
2022-08-20T20:01:32.872Z,101180.25
2022-08-20T20:04:02.909Z,101173.28
2022-08-20T20:06:34.766Z,101176.09
2022-08-20T20:09:09.734Z,101176.28
2022-08-20T20:11:42.433Z,101190.38
2022-08-20T20:14:15.195Z,101185.25
2022-08-20T20:16:44.078Z,101177.44
2022-08-20T20:19:29.897Z,101186.22
2022-08-20T20:22:10.405Z,101191.72
2022-08-20T20:24:59.747Z,101185.56
2022-08-20T20:27:28.850Z,101182.09
2022-08-20T20:30:00.962Z,101181.28
2022-08-20T20:32:30.475Z,101175.94
2022-08-20T20:35:01.123Z,101177.75
2022-08-20T20:37:48.688Z,101168.97
2022-08-20T20:40:26.499Z,101175.09
2022-08-20T20:43:01.186Z,101170.81
2022-08-20T20:45:33.740Z,101167.13
2022-08-20T20:48:10.850Z,101172.59
2022-08-20T20:50:39.619Z,101174.44
2022-08-20T20:53:07.770Z,101175.44
2022-08-20T20:55:39.928Z,101178.25
2022-08-20T20:58:08.173Z,101181.94
2022-08-20T21:00:36.647Z,101173.97
2022-08-20T21:03:04.870Z,101172.28
2022-08-20T21:05:33.326Z,101174.94
2022-08-20T21:08:05.399Z,101167.97
2022-08-20T21:10:36.933Z,101173.47
2022-08-20T21:13:06.644Z,101169.13
2022-08-20T21:15:35.985Z,101174.63
2022-08-20T21:18:05.994Z,101164.97
2022-08-20T21:20:34.257Z,101165.34
2022-08-20T21:23:01.766Z,101163.81
2022-08-20T21:25:32.191Z,101156.00
2022-08-20T21:28:00.149Z,101166.81
2022-08-20T21:30:29.127Z,101162.50
2022-08-20T21:32:56.807Z,101168.00
2022-08-20T21:35:24.897Z,101152.22
2022-08-20T21:37:52.876Z,101163.84
2022-08-20T21:40:21.901Z,101153.19
2022-08-20T21:42:50.365Z,101153.19
2022-08-20T21:45:19.867Z,101151.34
2022-08-20T21:47:49.565Z,101152.38
2022-08-20T21:50:19.059Z,101154.03
2022-08-20T21:52:54.111Z,101143.72
2022-08-20T21:55:27.410Z,101146.38
2022-08-20T21:57:55.531Z,101143.06
2022-08-20T22:00:48.829Z,101138.94
2022-08-20T22:03:20.025Z,101143.22
2022-08-20T22:05:48.674Z,101134.44
2022-08-20T22:08:16.544Z,101135.25
2022-08-20T22:10:44.087Z,101140.56
2022-08-20T22:13:11.946Z,101132.75
2022-08-20T22:15:39.679Z,101135.56
2022-08-20T22:18:08.065Z,101137.38
2022-08-20T22:20:37.408Z,101140.22
2022-08-20T22:23:06.958Z,101129.75
2022-08-20T22:25:35.251Z,101136.91
2022-08-20T22:28:03.059Z,101137.88
2022-08-20T22:30:31.455Z,101136.25
2022-08-20T22:33:02.516Z,101134.56
2022-08-20T22:35:30.422Z,101147.03
2022-08-20T22:37:59.584Z,101144.53
2022-08-20T22:40:27.316Z,101135.75
2022-08-20T22:42:54.979Z,101140.22
2022-08-20T22:45:22.525Z,101140.22
2022-08-20T22:47:50.593Z,101142.03
2022-08-20T22:50:18.940Z,101140.38
2022-08-20T22:52:46.532Z,101149.19
2022-08-20T22:55:15.638Z,101151.00
2022-08-20T22:57:43.247Z,101154.69
2022-08-20T23:00:15.525Z,101150.34
2022-08-20T23:02:45.073Z,101146.00
2022-08-20T23:05:17.944Z,101138.03
2022-08-20T23:07:45.501Z,101149.69
2022-08-20T23:10:13.274Z,101147.03
2022-08-20T23:12:44.126Z,101152.34
2022-08-20T23:15:11.953Z,101146.38
2022-08-20T23:17:39.947Z,101142.69
2022-08-20T23:20:09.801Z,101148.00
2022-08-20T23:22:38.041Z,101149.84
2022-08-20T23:25:07.102Z,101149.84
2022-08-20T23:27:38.377Z,101157.81
2022-08-20T23:30:08.981Z,101155.31
2022-08-20T23:32:36.501Z,101157.97
2022-08-20T23:35:06.066Z,101151.00
2022-08-20T23:37:35.812Z,101146.69
2022-08-20T23:40:04.371Z,101153.00
2022-08-20T23:42:32.172Z,101152.00
2022-08-20T23:44:59.798Z,101146.00
2022-08-20T23:47:29.151Z,101145.03
2022-08-20T23:49:56.681Z,101146.00
2022-08-20T23:52:24.302Z,101136.41
2022-08-20T23:54:51.786Z,101148.81
2022-08-20T23:57:21.140Z,101151.50
2022-08-20T23:59:49.118Z,101149.03
